createdAt,value
2018-06-28T00:01:09.933Z,31.67
2018-06-28T00:03:43.109Z,32.73
2018-06-28T00:06:16.229Z,31.43
2018-06-28T00:08:49.295Z,32.57
2018-06-28T00:11:22.717Z,27.83
2018-06-28T00:13:55.972Z,28.20
2018-06-28T00:16:29.138Z,24.43
2018-06-28T00:19:02.524Z,26.03
2018-06-28T00:21:35.803Z,23.30
2018-06-28T00:24:09.062Z,23.87
2018-06-28T00:26:42.487Z,18.87
2018-06-28T00:29:15.732Z,25.60
2018-06-28T00:31:49.526Z,18.10
2018-06-28T00:34:23.559Z,15.00
2018-06-28T00:36:57.353Z,27.43
2018-06-28T00:39:31.405Z,14.07
2018-06-28T00:42:05.143Z,22.20
2018-06-28T00:44:38.855Z,18.20
2018-06-28T00:47:12.527Z,17.63
2018-06-28T00:49:44.625Z,20.90
2018-06-28T00:52:18.206Z,17.47
2018-06-28T00:54:51.521Z,19.67
2018-06-28T00:57:24.687Z,17.20
2018-06-28T00:59:57.949Z,17.70
2018-06-28T01:02:31.013Z,18.23
2018-06-28T01:05:04.072Z,20.23
2018-06-28T01:07:37.173Z,16.20
2018-06-28T01:10:10.306Z,17.87
2018-06-28T01:12:43.372Z,25.40
2018-06-28T01:15:16.491Z,20.67
2018-06-28T01:17:49.588Z,25.63
2018-06-28T01:20:22.696Z,23.83
2018-06-28T01:22:55.786Z,20.87
2018-06-28T01:25:28.900Z,16.13
2018-06-28T01:28:02.008Z,26.23
2018-06-28T01:30:35.134Z,22.70
2018-06-28T01:33:08.234Z,22.53
2018-06-28T01:35:42.456Z,21.20
2018-06-28T01:38:15.667Z,17.80
2018-06-28T01:40:49.268Z,22.37
2018-06-28T01:43:34.243Z,16.90
2018-06-28T01:46:07.361Z,16.67
2018-06-28T01:48:40.465Z,17.13
2018-06-28T01:51:13.597Z,17.33
2018-06-28T01:53:47.504Z,17.77
2018-06-28T01:56:20.526Z,21.80
2018-06-28T01:58:53.623Z,15.40
2018-06-28T02:01:26.670Z,17.77
2018-06-28T02:03:59.873Z,13.77
2018-06-28T02:06:33.086Z,14.17
2018-06-28T02:09:06.718Z,20.10
2018-06-28T02:11:40.031Z,13.30
2018-06-28T02:14:13.856Z,12.77
2018-06-28T02:16:47.905Z,22.50
2018-06-28T02:19:21.668Z,13.60
2018-06-28T02:21:55.447Z,12.53
2018-06-28T02:24:30.095Z,11.77
2018-06-28T02:27:03.871Z,14.90
2018-06-28T02:29:38.506Z,11.93
2018-06-28T02:32:12.302Z,15.13
2018-06-28T02:34:45.994Z,11.87
2018-06-28T02:37:19.823Z,12.30
2018-06-28T02:39:53.625Z,12.67
2018-06-28T02:42:26.046Z,11.50
2018-06-28T02:44:59.654Z,12.60
2018-06-28T02:47:34.005Z,11.70
2018-06-28T02:50:07.444Z,12.43
2018-06-28T02:52:40.707Z,12.00
2018-06-28T02:55:13.749Z,12.63
2018-06-28T02:57:46.899Z,11.10
2018-06-28T03:00:20.117Z,10.90
2018-06-28T03:02:53.226Z,11.40
2018-06-28T03:05:26.307Z,10.60
2018-06-28T03:07:59.328Z,13.67
2018-06-28T03:10:32.523Z,19.00
2018-06-28T03:13:04.188Z,13.80
2018-06-28T03:15:37.222Z,11.50
2018-06-28T03:18:10.494Z,11.50
2018-06-28T03:20:43.874Z,10.93
2018-06-28T03:23:17.032Z,11.03
2018-06-28T03:25:50.049Z,9.60
2018-06-28T03:28:23.266Z,9.60
2018-06-28T03:30:56.451Z,9.47
2018-06-28T03:33:29.740Z,10.77
2018-06-28T03:36:03.051Z,16.43
2018-06-28T03:38:36.335Z,9.40
2018-06-28T03:41:09.457Z,12.83
2018-06-28T03:43:42.470Z,9.60
2018-06-28T03:46:15.595Z,7.10
2018-06-28T03:48:48.955Z,7.87
2018-06-28T03:51:22.070Z,8.70
2018-06-28T03:53:55.822Z,11.10
2018-06-28T03:56:29.627Z,10.90
2018-06-28T03:59:04.130Z,7.47
2018-06-28T04:01:37.438Z,6.93
2018-06-28T04:04:11.038Z,7.80
2018-06-28T04:06:44.689Z,6.60
2018-06-28T04:09:18.850Z,7.73
2018-06-28T04:11:52.754Z,7.73
2018-06-28T04:14:29.804Z,7.80
2018-06-28T04:17:03.598Z,8.20
2018-06-28T04:19:38.211Z,8.77
2018-06-28T04:22:20.006Z,6.70
2018-06-28T04:24:53.697Z,5.87
2018-06-28T04:27:27.070Z,5.60
2018-06-28T04:30:01.045Z,5.40
2018-06-28T04:32:34.761Z,11.37
2018-06-28T04:35:08.671Z,11.20
2018-06-28T04:37:41.763Z,6.53
2018-06-28T04:40:14.911Z,7.47
2018-06-28T04:42:47.935Z,6.37
2018-06-28T04:45:21.057Z,5.47
2018-06-28T04:47:54.211Z,6.00
2018-06-28T04:50:27.420Z,6.80
2018-06-28T04:53:00.663Z,4.70
2018-06-28T04:55:34.016Z,12.50
2018-06-28T04:58:07.463Z,7.60
2018-06-28T05:00:41.339Z,5.50
2018-06-28T05:03:14.457Z,4.97
2018-06-28T05:05:47.459Z,5.10
2018-06-28T05:08:20.700Z,5.33
2018-06-28T05:10:53.876Z,4.47
2018-06-28T05:13:27.242Z,4.20
2018-06-28T05:16:00.427Z,3.70
2018-06-28T05:18:33.522Z,3.70
2018-06-28T05:21:06.689Z,6.60
2018-06-28T05:23:39.823Z,3.97
2018-06-28T05:26:13.771Z,5.07
2018-06-28T05:28:47.167Z,7.93
2018-06-28T05:31:20.479Z,5.30
2018-06-28T05:33:54.576Z,14.63
2018-06-28T05:36:27.731Z,6.57
2018-06-28T05:39:01.590Z,6.90
2018-06-28T05:41:34.680Z,5.73
2018-06-28T05:44:08.010Z,6.73
2018-06-28T05:46:41.122Z,6.43
2018-06-28T05:49:14.231Z,6.13
2018-06-28T05:51:48.243Z,6.40
2018-06-28T05:54:21.657Z,6.30
2018-06-28T05:56:54.924Z,5.40
2018-06-28T05:59:28.215Z,6.83
2018-06-28T06:02:01.897Z,6.17
2018-06-28T06:04:35.358Z,6.90
2018-06-28T06:07:09.285Z,7.07
2018-06-28T06:09:43.609Z,7.20
2018-06-28T06:12:17.322Z,9.83
2018-06-28T06:14:50.780Z,10.20
2018-06-28T06:17:24.348Z,6.17
2018-06-28T06:19:58.008Z,6.17
2018-06-28T06:22:31.445Z,5.90
2018-06-28T06:25:05.785Z,9.90
2018-06-28T06:27:39.275Z,5.80
2018-06-28T06:30:13.242Z,6.77
2018-06-28T06:32:46.899Z,11.40
2018-06-28T06:35:20.072Z,5.93
2018-06-28T06:37:53.520Z,5.63
2018-06-28T06:40:26.858Z,5.00
2018-06-28T06:43:00.188Z,5.10
2018-06-28T06:45:33.295Z,5.47
2018-06-28T06:48:06.509Z,9.23
2018-06-28T06:50:39.567Z,6.63
2018-06-28T06:53:12.857Z,7.00
2018-06-28T06:55:46.068Z,7.07
2018-06-28T06:58:19.300Z,5.17
2018-06-28T07:01:00.000Z,5.23
2018-06-28T07:03:34.678Z,5.73
2018-06-28T07:06:08.000Z,5.03
2018-06-28T07:08:41.020Z,4.53
2018-06-28T07:11:14.404Z,5.50
2018-06-28T07:13:47.447Z,5.03
2018-06-28T07:16:20.518Z,11.80
2018-06-28T07:18:53.616Z,5.40
2018-06-28T07:21:26.806Z,5.80
2018-06-28T07:23:59.969Z,9.70
2018-06-28T07:26:33.398Z,8.83
2018-06-28T07:31:44.607Z,9.33
2018-06-28T07:34:18.025Z,5.13
2018-06-28T07:36:51.261Z,5.20
2018-06-28T07:39:24.439Z,5.20
2018-06-28T07:41:57.531Z,6.87
2018-06-28T07:44:30.595Z,5.43
2018-06-28T07:47:03.643Z,5.87
2018-06-28T07:49:37.420Z,4.70
2018-06-28T07:52:10.506Z,6.97
2018-06-28T07:54:43.665Z,5.90
2018-06-28T07:57:25.886Z,7.60
2018-06-28T07:59:58.956Z,5.77
2018-06-28T08:02:32.213Z,5.53
2018-06-28T08:05:05.447Z,20.17
2018-06-28T08:07:38.519Z,7.20
2018-06-28T08:10:11.854Z,6.70
2018-06-28T08:12:44.976Z,6.93
2018-06-28T08:15:18.072Z,6.10
2018-06-28T08:17:51.513Z,6.00
2018-06-28T08:20:25.873Z,5.53
2018-06-28T08:22:59.080Z,5.03
2018-06-28T08:25:32.247Z,6.60
2018-06-28T08:28:05.424Z,7.60
2018-06-28T08:30:42.611Z,6.47
2018-06-28T08:33:15.787Z,6.23
2018-06-28T08:35:49.117Z,8.07
2018-06-28T08:38:22.313Z,5.60
2018-06-28T08:40:55.382Z,8.87
2018-06-28T08:43:28.825Z,6.03
2018-06-28T08:46:02.067Z,5.83
2018-06-28T08:48:35.622Z,5.63
2018-06-28T08:51:08.911Z,6.83
2018-06-28T08:53:42.692Z,6.60
2018-06-28T08:56:15.821Z,6.63
2018-06-28T08:58:48.938Z,6.50
2018-06-28T09:01:22.173Z,5.90
2018-06-28T09:03:55.451Z,10.80
2018-06-28T09:06:28.550Z,5.53
2018-06-28T09:09:01.721Z,6.23
2018-06-28T09:11:34.828Z,8.07
2018-06-28T09:14:07.972Z,5.93
2018-06-28T09:16:41.206Z,8.07
2018-06-28T09:19:14.232Z,6.10
2018-06-28T09:21:47.354Z,8.23
2018-06-28T09:24:20.459Z,6.37
2018-06-28T09:26:53.509Z,8.60
2018-06-28T09:29:26.586Z,8.13
2018-06-28T09:31:58.375Z,5.83
2018-06-28T09:34:31.607Z,8.47
2018-06-28T09:37:04.888Z,6.80
2018-06-28T09:39:37.954Z,9.77
2018-06-28T09:42:11.514Z,6.40
2018-06-28T09:44:43.152Z,6.70
2018-06-28T09:47:17.045Z,11.20
2018-06-28T09:49:50.260Z,6.90
2018-06-28T09:52:24.002Z,6.80
2018-06-28T09:54:57.148Z,6.90
2018-06-28T09:57:30.356Z,6.77
2018-06-28T10:00:03.562Z,13.80
2018-06-28T10:02:37.117Z,7.60
2018-06-28T10:05:11.097Z,10.63
2018-06-28T10:07:44.327Z,9.20
2018-06-28T10:12:54.908Z,8.73
2018-06-28T10:15:28.360Z,6.23
2018-06-28T10:18:02.279Z,6.90
2018-06-28T10:20:35.731Z,7.20
2018-06-28T10:23:09.193Z,12.43
2018-06-28T10:25:42.755Z,8.93
2018-06-28T10:28:16.291Z,7.63
2018-06-28T10:30:49.565Z,9.43
2018-06-28T10:33:23.387Z,11.53
2018-06-28T10:35:56.405Z,9.13
2018-06-28T10:38:29.423Z,12.13
2018-06-28T10:41:02.619Z,22.33
2018-06-28T10:43:35.757Z,9.93
2018-06-28T10:46:08.976Z,7.90
2018-06-28T10:48:42.003Z,8.10
2018-06-28T10:51:15.145Z,8.37
2018-06-28T10:53:48.208Z,15.87
2018-06-28T10:56:21.339Z,7.77
2018-06-28T10:58:54.352Z,9.40
2018-06-28T11:01:27.472Z,13.70
2018-06-28T11:04:00.786Z,11.53
2018-06-28T11:06:34.214Z,11.93
2018-06-28T11:09:10.035Z,11.47
2018-06-28T11:11:42.208Z,11.93
2018-06-28T11:14:15.191Z,8.63
2018-06-28T11:16:48.298Z,13.67
2018-06-28T11:19:21.250Z,8.80
2018-06-28T11:21:54.391Z,8.07
2018-06-28T11:24:27.493Z,12.03
2018-06-28T11:27:00.610Z,9.33
2018-06-28T11:29:33.815Z,10.33
2018-06-28T11:32:06.863Z,9.90
2018-06-28T11:34:39.970Z,9.00
2018-06-28T11:37:13.368Z,13.77
2018-06-28T11:39:46.539Z,11.80
2018-06-28T11:42:19.680Z,9.00
2018-06-28T11:44:53.040Z,14.50
2018-06-28T11:47:26.182Z,16.20
2018-06-28T11:49:59.342Z,10.70
2018-06-28T11:52:32.710Z,11.83
2018-06-28T11:55:06.064Z,10.40
2018-06-28T11:57:38.023Z,12.17
2018-06-28T12:00:11.545Z,14.13
2018-06-28T12:02:45.116Z,17.60
2018-06-28T12:05:18.197Z,9.60
2018-06-28T12:07:51.288Z,18.73
2018-06-28T12:10:24.375Z,15.50
2018-06-28T12:12:57.460Z,10.63
2018-06-28T12:15:30.706Z,14.30
2018-06-28T12:18:03.804Z,11.20
2018-06-28T12:20:36.915Z,11.07
2018-06-28T12:23:10.066Z,10.50
2018-06-28T12:25:43.142Z,18.40
2018-06-28T12:28:16.255Z,20.93
2018-06-28T12:30:49.256Z,9.13
2018-06-28T12:33:22.467Z,12.53
2018-06-28T12:35:59.746Z,13.07
2018-06-28T12:38:33.890Z,25.53
2018-06-28T12:41:06.945Z,11.53
2018-06-28T12:43:40.188Z,16.63
2018-06-28T12:46:14.030Z,12.10
2018-06-28T12:48:47.158Z,15.37
2018-06-28T12:51:25.152Z,15.40
2018-06-28T12:53:58.290Z,11.70
2018-06-28T12:56:33.436Z,12.13
2018-06-28T12:59:07.954Z,14.10
2018-06-28T13:01:40.962Z,13.30
2018-06-28T13:04:14.275Z,48.13
2018-06-28T13:06:47.567Z,12.63
2018-06-28T13:09:21.359Z,13.40
2018-06-28T13:11:55.226Z,11.23
2018-06-28T13:14:28.272Z,10.20
2018-06-28T13:17:01.585Z,19.23
2018-06-28T13:19:34.897Z,12.37
2018-06-28T13:22:07.990Z,16.87
2018-06-28T13:24:41.864Z,14.43
2018-06-28T13:27:15.068Z,9.90
2018-06-28T13:29:49.174Z,11.10
2018-06-28T13:32:22.357Z,28.80
2018-06-28T13:34:55.536Z,11.17
2018-06-28T13:37:28.723Z,20.00
2018-06-28T13:40:01.911Z,10.90
2018-06-28T13:42:35.843Z,14.57
2018-06-28T13:45:09.096Z,11.87
2018-06-28T13:47:42.236Z,14.93
2018-06-28T13:50:15.261Z,29.30
2018-06-28T13:52:48.415Z,22.93
2018-06-28T13:55:21.961Z,18.80
2018-06-28T13:57:55.318Z,13.00
2018-06-28T14:00:27.188Z,11.53
2018-06-28T14:03:00.488Z,19.53
2018-06-28T14:05:34.954Z,15.03
2018-06-28T14:08:08.432Z,15.60
2018-06-28T14:10:42.544Z,11.40
2018-06-28T14:13:16.936Z,12.90
2018-06-28T14:15:50.682Z,12.77
2018-06-28T14:18:24.512Z,13.77
2018-06-28T14:20:59.191Z,16.70
2018-06-28T14:23:33.928Z,13.53
2018-06-28T14:26:10.228Z,18.17
2018-06-28T14:28:44.130Z,10.67
2018-06-28T14:31:18.052Z,17.83
2018-06-28T14:33:52.148Z,13.30
2018-06-28T14:36:25.336Z,12.33
2018-06-28T14:38:58.575Z,17.13
2018-06-28T14:41:31.599Z,11.70
2018-06-28T14:44:04.918Z,26.70
2018-06-28T14:46:38.119Z,13.87
2018-06-28T14:49:11.216Z,12.53
2018-06-28T14:51:44.468Z,15.27
2018-06-28T14:54:17.609Z,11.90
2018-06-28T14:56:50.909Z,11.80
2018-06-28T14:59:23.403Z,18.30
2018-06-28T15:01:56.553Z,24.70
2018-06-28T15:04:29.721Z,17.53
2018-06-28T15:07:02.827Z,27.13
2018-06-28T15:09:35.932Z,20.03
2018-06-28T15:12:09.152Z,16.30
2018-06-28T15:14:42.199Z,15.47
2018-06-28T15:17:15.381Z,25.63
2018-06-28T15:19:48.502Z,22.40
2018-06-28T15:22:21.623Z,18.63
2018-06-28T15:24:54.722Z,21.47
2018-06-28T15:27:28.006Z,12.93
2018-06-28T15:30:01.271Z,12.90
2018-06-28T15:32:34.427Z,13.53
2018-06-28T15:35:07.590Z,19.70
2018-06-28T15:37:40.642Z,14.00
2018-06-28T15:40:13.814Z,14.30
2018-06-28T15:42:46.947Z,13.60
2018-06-28T15:45:20.043Z,16.43
2018-06-28T15:47:53.042Z,13.97
2018-06-28T15:50:26.195Z,13.93
2018-06-28T15:52:58.065Z,14.60
2018-06-28T15:55:31.264Z,18.03
2018-06-28T15:58:04.447Z,12.60
2018-06-28T16:00:36.130Z,16.70
2018-06-28T16:03:09.349Z,16.07
2018-06-28T16:05:42.394Z,13.03
2018-06-28T16:08:15.473Z,13.10
2018-06-28T16:10:48.552Z,16.27
2018-06-28T16:13:21.729Z,31.87
2018-06-28T16:15:54.823Z,18.57
2018-06-28T16:18:28.355Z,18.63
2018-06-28T16:21:01.480Z,14.13
2018-06-28T16:23:34.563Z,31.60
2018-06-28T16:26:07.661Z,18.73
2018-06-28T16:28:40.759Z,15.50
2018-06-28T16:31:12.542Z,14.20
2018-06-28T16:33:44.050Z,16.03
2018-06-28T16:36:17.107Z,18.83
2018-06-28T16:38:50.450Z,24.00
2018-06-28T16:41:23.533Z,13.77
2018-06-28T16:43:56.722Z,13.03
2018-06-28T16:46:30.794Z,19.23
2018-06-28T16:49:03.969Z,23.23
2018-06-28T16:51:37.107Z,20.03
2018-06-28T16:54:10.249Z,20.60
2018-06-28T16:56:43.903Z,15.30
2018-06-28T16:59:16.900Z,17.37
2018-06-28T17:01:49.911Z,15.83
2018-06-28T17:04:23.111Z,14.20
2018-06-28T17:06:56.302Z,20.00
2018-06-28T17:09:29.472Z,17.60
2018-06-28T17:12:03.659Z,20.40
2018-06-28T17:14:36.874Z,13.43
2018-06-28T17:17:09.920Z,15.10
2018-06-28T17:19:43.052Z,18.63
2018-06-28T17:22:16.355Z,15.70
2018-06-28T17:24:49.611Z,23.60
2018-06-28T17:27:21.236Z,22.77
2018-06-28T17:29:54.354Z,18.80
2018-06-28T17:32:27.480Z,26.30
2018-06-28T17:35:00.562Z,16.20
2018-06-28T17:37:33.774Z,19.20
2018-06-28T17:40:06.970Z,19.67
2018-06-28T17:42:40.090Z,16.63
2018-06-28T17:45:13.184Z,15.80
2018-06-28T17:47:46.194Z,18.00
2018-06-28T17:50:19.196Z,14.97
2018-06-28T17:52:52.341Z,21.50
2018-06-28T17:55:25.463Z,14.60
2018-06-28T17:57:58.446Z,15.03
2018-06-28T18:00:31.535Z,22.47
